Flight Track Log - Related Links

Times and Time Zones

All times are in EDT time to prevent confusion due to time zone crossing. See the PVL5700 flight status page for this flight to view local times or setup timezone preferences in your user account.

Time Position Orientation Groundspeed Altitude Reporting Facility
EDT Latitude Longitude Course Direction KTS MPH feet Rate Location/Type
Sat 02:54:25 PM 53.1667 -60.1667 149° Southeast 170 196 8,300  Level Gander Center
Sat 02:55:25 PM 53.1333 -60.1333 149° Southeast 170 196 9,600 1,350 Climbing Gander Center
Sat 02:56:25 PM 53.0833 -60.0833 149° Southeast 170 196 11,000 1,350 Climbing Gander Center
Sat 02:57:25 PM 53.0333 -60.0667 169° South 180 207 12,300 1,350 Climbing Gander Center
Sat 02:58:25 PM 52.9833 -60.0333 158° South 180 207 13,700 1,150 Climbing Gander Center
Sat 02:59:00 PM 52.9618 -60.1285 149° Southeast  Level FlightAware Approximate
Sat 02:59:25 PM 52.9500 -59.9833 138° Southeast 180 207 14,600  Level Gander Center
Sat 03:00:25 PM 52.9000 -59.9500 158° South 180 207 15,600 950 Climbing Gander Center
Sat 03:01:25 PM 52.8500 -59.9000 149° Southeast 190 219 16,500 900 Climbing Gander Center
Sat 03:02:25 PM 52.8167 -59.8667 149° Southeast 190 219 17,400 700 Climbing Gander Center
Sat 03:03:25 PM 52.7667 -59.8167 149° Southeast 190 219 17,900 600 Climbing Gander Center
Sat 03:04:25 PM 52.7167 -59.7833 158° South 200 230 18,600 550 Climbing Gander Center
Sat 03:05:25 PM 52.6667 -59.7333 149° Southeast 200 230 19,000 200 Climbing Gander Center
Sat 03:06:25 PM 52.6000 -59.7167 171° South 220 253 19,000  Level Gander Center
Sat 03:07:25 PM 52.5500 -59.6667 149° Southeast 250 288 19,000  Level Gander Center
Sat 03:08:25 PM 52.4833 -59.6000 149° Southeast 260 299 19,000  Level Gander Center
Sat 03:09:25 PM 52.4167 -59.5500 155° Southeast 260 299 19,000  Level Gander Center
Sat 03:10:25 PM 52.3500 -59.5000 155° Southeast 270 311 19,000  Level Gander Center
Sat 03:11:25 PM 52.2833 -59.4500 155° Southeast 270 311 19,000  Level Gander Center
Sat 03:12:25 PM 52.2167 -59.3667 143° Southeast 270 311 19,000  Level Gander Center
Sat 03:13:25 PM 52.1500 -59.3167 155° Southeast 270 311 19,000  Level Gander Center
Sat 03:14:25 PM 52.0833 -59.2667 155° Southeast 270 311 19,000  Level Gander Center
Sat 03:15:25 PM 52.0000 -59.2167 160° South 270 311 19,000  Level Gander Center
Sat 03:16:25 PM 51.9333 -59.1667 155° Southeast 270 311 19,000  Level Gander Center
Sat 03:17:25 PM 51.8667 -59.1167 155° Southeast 270 311 19,000  Level Gander Center
Sat 03:18:25 PM 51.8000 -59.0667 155° Southeast 270 311 19,000  Level Gander Center
Sat 03:19:25 PM 51.7333 -59.0167 155° Southeast 270 311 19,000  Level Gander Center
Sat 03:20:25 PM 51.6667 -58.9667 155° Southeast 270 311 19,000  Level Gander Center
Sat 03:21:25 PM 51.6000 -58.9167 155° Southeast 270 311 19,000  Level Gander Center
Sat 03:22:25 PM 51.5333 -58.8667 155° Southeast 270 311 19,000  Level Gander Center
Sat 03:23:25 PM 51.4500 -58.7833 148° Southeast 270 311 19,000  Level Gander Center
Sat 03:24:25 PM 51.4000 -58.7333 148° Southeast 270 311 19,000  Level Gander Center
Sat 03:25:25 PM 51.3333 -58.6833 155° Southeast 270 311 19,000  Level Gander Center
Sat 03:26:25 PM 51.2500 -58.6333 159° South 270 311 19,000  Level Gander Center
Sat 03:27:25 PM 51.2000 -58.5833 148° Southeast 270 311 19,000  Level Gander Center
Sat 03:28:25 PM 51.1000 -58.5333 163° South 270 311 19,000  Level Gander Center
Sat 03:29:25 PM 51.0333 -58.4833 155° Southeast 270 311 19,000  Level Gander Center
Sat 03:30:25 PM 50.9667 -58.4333 155° Southeast 270 311 19,000  Level Gander Center
Sat 03:31:25 PM 50.9000 -58.3833 155° Southeast 270 311 19,000  Level Gander Center
Sat 03:32:25 PM 50.8333 -58.3667 171° South 260 299 19,000  Level Gander Center
Sat 03:33:25 PM 50.7667 -58.3500 171° South 260 299 19,000  Level Gander Center
Sat 03:34:25 PM 50.7000 -58.3000 155° Southeast 260 299 19,000  Level Gander Center
Sat 03:35:25 PM 50.6333 -58.2833 171° South 270 311 19,000  Level Gander Center
Sat 03:36:25 PM 50.5500 -58.2500 166° South 270 311 19,000  Level Gander Center
Sat 03:37:25 PM 50.4833 -58.2000 154° Southeast 270 311 19,000  Level Gander Center
Sat 03:38:25 PM 50.4167 -58.1833 171° South 270 311 19,000  Level Gander Center
Sat 03:39:25 PM 50.3333 -58.1667 173° South 260 299 19,000  Level Gander Center
Sat 03:40:25 PM 50.2667 -58.1167 154° Southeast 270 311 19,000  Level Gander Center
Sat 03:41:25 PM 50.2000 -58.1000 171° South 270 311 19,000  Level Gander Center
Sat 03:42:25 PM 50.1167 -58.0667 166° South 270 311 19,000 -550 Level Gander Center
Sat 03:43:25 PM 50.0333 -58.0333 166° South 280 322 17,900 -1,100 Descending Gander Center
Sat 03:44:25 PM 49.9667 -58.0000 162° South 300 345 16,800 -1,150 Descending Gander Center
Sat 03:45:25 PM 49.8833 -57.9833 173° South 300 345 15,600 -1,100 Descending Gander Center
Sat 03:46:25 PM 49.8000 -57.9333 159° South 290 334 14,600 -1,050 Descending Gander Center
Sat 03:47:25 PM 49.7333 -57.9167 171° South 280 322 13,500 -1,050 Descending Gander Center
Sat 03:48:25 PM 49.6500 -57.8667 159° South 280 322 12,500 -1,000 Descending Gander Center
Sat 03:49:25 PM 49.5833 -57.8500 171° South 280 322 11,500 -1,050 Descending Gander Center
Sat 03:50:25 PM 49.5000 -57.8333 173° South 270 311 10,400 -1,050 Descending Gander Center
Sat 03:51:25 PM 49.4333 -57.8167 171° South 270 311 9,400 -1,050 Descending Gander Center
Sat 03:52:25 PM 49.3667 -57.7667 154° Southeast 270 311 8,300 -950 Descending Gander Center
Sat 03:53:25 PM 49.3000 -57.7500 171° South 250 288 7,500 -850 Descending Gander Center
Sat 03:54:25 PM 49.2333 -57.7167 162° South 250 288 6,600 -900 Descending Gander Center
Sat 03:55:25 PM 49.1667 -57.7000 171° South 250 288 5,700 -950 Descending Gander Center
Sat 03:56:25 PM 49.1000 -57.6500 154° Southeast 240 276 4,700 -700 Descending Gander Center
Sat 03:57:25 PM 49.0500 -57.5833 139° Southeast 230 265 4,300 -400 Descending Gander Center
Sat 03:59:00 PM 49.1367 -57.4679 41° Northeast  Level FlightAware Approximate
Sat 04:06:00 PM 49.2000 -57.3833 60° Northeast  Level FlightAware Approximate
Sat 04:07:00 PM 49.2108 -57.3914 60° Northeast  Level Estimated
Sat 04:08:00 PM 49.2108 -57.3914 60° Northeast  Level Estimated

Login

Don't have an account? Register now (free) for customized features, flight alerts, and more!